Time;durP1;ratioP1;P1;durP2;ratioP2;P2;SDS_P1;SDS_P2;PMS_P1;PMS_P2;Temp;Humidity;BMP_temperature;BMP_pressure;BME280_temperature;BME280_humidity;BME280_pressure;Samples;Min_cycle;Max_cycle;Signal;HPM_P1;HPM_P2
2023/08/08 00:00:21;;;;;;;7.32;2.58;;;;;;;8.30;100.00;93267.44;2076042;28;20087;-79
2023/08/08 00:01:22;;;;;;;4.30;2.70;;;;;;;8.44;100.00;93264.66;2073507;28;20053;-80
2023/08/08 00:02:23;;;;;;;4.70;2.60;;;;;;;8.27;100.00;93273.56;2064996;28;20098;-80
2023/08/08 00:03:24;;;;;;;5.53;2.38;;;;;;;8.28;100.00;93277.72;2057343;28;20416;-81
2023/08/08 00:04:24;;;;;;;4.10;2.53;;;;;;;8.20;100.00;93278.94;2073535;28;20049;-80
2023/08/08 00:05:25;;;;;;;5.47;2.42;;;;;;;8.33;100.00;93283.38;2092269;28;20438;-80
2023/08/08 00:06:27;;;;;;;3.85;2.70;;;;;;;8.32;100.00;93275.78;2089804;28;20489;-80
2023/08/08 00:07:30;;;;;;;5.45;2.50;;;;;;;8.45;100.00;93284.06;2081088;28;20026;-79
2023/08/08 00:08:31;;;;;;;7.32;2.42;;;;;;;8.55;100.00;93275.19;2081342;28;20056;-80
2023/08/08 00:09:32;;;;;;;9.68;2.60;;;;;;;8.53;100.00;93278.25;2081388;28;20473;-80
2023/08/08 00:10:33;;;;;;;4.88;2.35;;;;;;;8.63;100.00;93284.59;2081212;28;20064;-79
2023/08/08 00:11:34;;;;;;;3.90;2.60;;;;;;;8.69;100.00;93280.38;2089726;28;20020;-80
2023/08/08 00:12:35;;;;;;;5.20;2.13;;;;;;;8.79;100.00;93282.13;2088946;28;20031;-79
2023/08/08 00:13:43;;;;;;;5.55;2.33;;;;;;;8.69;100.00;93279.59;2080963;28;20017;-80
2023/08/08 00:14:44;;;;;;;3.97;2.30;;;;;;;8.65;100.00;93284.19;2082392;28;20041;-80
2023/08/08 00:15:45;;;;;;;6.00;2.00;;;;;;;8.98;100.00;93285.31;2088976;28;20424;-80
2023/08/08 00:16:46;;;;;;;3.13;2.40;;;;;;;8.95;100.00;93276.19;2081729;28;20049;-80
2023/08/08 00:17:47;;;;;;;2.50;2.30;;;;;;;8.88;100.00;93278.97;2078073;28;20026;-80
2023/08/08 00:18:50;;;;;;;4.65;2.38;;;;;;;8.79;100.00;93276.03;2089871;28;20024;-79
2023/08/08 00:19:51;;;;;;;5.28;2.38;;;;;;;8.85;100.00;93276.34;2081302;28;20029;-80
2023/08/08 00:20:52;;;;;;;3.47;2.25;;;;;;;8.84;100.00;93275.59;2072914;28;20028;-80
2023/08/08 00:21:53;;;;;;;5.18;2.45;;;;;;;8.79;100.00;93276.03;2089797;28;20036;-79
2023/08/08 00:22:54;;;;;;;4.60;2.20;;;;;;;8.75;100.00;93270.00;2097630;28;20134;-80
2023/08/08 00:23:54;;;;;;;3.92;2.22;;;;;;;8.61;100.00;93273.59;2080641;28;20108;-80
2023/08/08 00:24:55;;;;;;;7.63;2.70;;;;;;;8.58;100.00;93275.13;2081421;28;20025;-79
2023/08/08 00:25:56;;;;;;;3.83;2.17;;;;;;;8.62;100.00;93272.44;2089222;28;20021;-80
2023/08/08 00:26:57;;;;;;;4.03;2.33;;;;;;;8.70;100.00;93273.88;2090038;28;20028;-80
2023/08/08 00:27:58;;;;;;;6.05;2.45;;;;;;;8.77;100.00;93273.00;2087650;28;20028;-79
2023/08/08 00:28:59;;;;;;;6.07;2.25;;;;;;;8.77;100.00;93275.69;2081104;28;20118;-79
2023/08/08 00:30:01;;;;;;;7.63;2.63;;;;;;;8.61;100.00;93270.19;2081171;28;20496;-80
2023/08/08 00:31:02;;;;;;;4.95;2.75;;;;;;;8.60;100.00;93272.06;2088819;28;20381;-80
2023/08/08 00:32:03;;;;;;;3.20;2.17;;;;;;;8.45;100.00;93268.81;2081602;28;20025;-80
2023/08/08 00:33:04;;;;;;;5.25;2.65;;;;;;;8.51;100.00;93272.56;2078979;28;20040;-80
2023/08/08 00:34:05;;;;;;;3.75;2.33;;;;;;;8.60;100.00;93264.06;2094351;28;20036;-80
2023/08/08 00:35:06;;;;;;;6.70;2.30;;;;;;;8.54;100.00;93269.09;2089622;28;20406;-80
2023/08/08 00:36:07;;;;;;;5.38;2.20;;;;;;;8.35;100.00;93267.00;2085522;28;20017;-79
2023/08/08 00:37:08;;;;;;;4.68;2.47;;;;;;;8.43;100.00;93271.13;2089532;28;20032;-80
2023/08/08 00:38:09;;;;;;;3.92;2.33;;;;;;;8.38;100.00;93268.13;2081428;28;20080;-80
2023/08/08 00:39:10;;;;;;;2.70;2.20;;;;;;;8.39;100.00;93275.75;2075162;28;20453;-79
2023/08/08 00:40:11;;;;;;;3.85;2.53;;;;;;;8.29;100.00;93264.00;2081057;28;20717;-80
2023/08/08 00:41:12;;;;;;;4.75;2.20;;;;;;;8.38;100.00;93257.47;2073427;28;20022;-79
2023/08/08 00:42:13;;;;;;;5.30;2.47;;;;;;;8.41;100.00;93262.78;2089675;28;20025;-79
2023/08/08 00:43:14;;;;;;;3.85;2.30;;;;;;;8.33;100.00;93259.41;2081244;28;20021;-80
2023/08/08 00:44:15;;;;;;;5.18;2.25;;;;;;;8.33;100.00;93254.06;2080885;28;20025;-80
2023/08/08 00:45:16;;;;;;;4.68;2.42;;;;;;;8.29;100.00;93255.28;2081493;28;20029;-79
2023/08/08 00:46:21;;;;;;;5.75;2.35;;;;;;;8.21;100.00;93248.50;2080872;28;20112;-79
2023/08/08 00:47:32;;;;;;;4.75;2.13;;;;;;;8.21;100.00;93246.63;2088969;28;20716;-79
2023/08/08 00:48:33;;;;;;;7.15;2.28;;;;;;;8.26;100.00;93251.50;2073375;28;20399;-79
2023/08/08 00:49:35;;;;;;;3.05;2.22;;;;;;;8.18;100.00;93249.31;2080750;28;20079;-79
2023/08/08 00:50:36;;;;;;;4.57;2.78;;;;;;;8.13;100.00;93255.06;2089248;28;20497;-80
2023/08/08 00:51:37;;;;;;;4.22;2.70;;;;;;;8.11;100.00;93250.13;2085060;28;20551;-80
2023/08/08 00:52:40;;;;;;;5.90;2.58;;;;;;;8.00;100.00;93254.81;2084865;28;20038;-80
2023/08/08 00:53:41;;;;;;;3.50;2.70;;;;;;;7.97;100.00;93253.69;2089775;28;20044;-79
2023/08/08 00:54:42;;;;;;;7.00;2.38;;;;;;;7.96;100.00;93254.84;2080784;28;20112;-79
2023/08/08 00:55:43;;;;;;;5.97;2.25;;;;;;;7.81;100.00;93256.13;2081119;28;20095;-80
2023/08/08 00:56:44;;;;;;;5.50;2.25;;;;;;;7.70;100.00;93253.56;2077570;28;20030;-79
2023/08/08 00:57:46;;;;;;;8.30;2.30;;;;;;;7.74;100.00;93251.63;2072643;28;20435;-80
2023/08/08 00:58:50;;;;;;;4.32;2.20;;;;;;;7.67;100.00;93246.38;2082320;28;20064;-80
2023/08/08 00:59:51;;;;;;;5.05;2.88;;;;;;;7.69;100.00;93259.28;2081415;28;20031;-80
2023/08/08 01:00:54;;;;;;;5.88;2.55;;;;;;;7.58;100.00;93260.13;2080739;28;20025;-80
2023/08/08 01:02:01;;;;;;;4.22;2.40;;;;;;;7.63;100.00;93250.19;2073254;28;20558;-79
2023/08/08 01:03:03;;;;;;;4.30;2.72;;;;;;;7.61;100.00;93263.16;2073369;28;20115;-80
2023/08/08 01:04:06;;;;;;;7.43;2.72;;;;;;;7.69;100.00;93256.63;2080881;28;20021;-80
2023/08/08 01:05:08;;;;;;;5.43;2.42;;;;;;;7.71;100.00;93246.34;2089387;28;20025;-80
2023/08/08 01:06:51;;;;;;;4.93;2.63;;;;;;;7.68;100.00;93255.09;2085021;28;20032;-80
2023/08/08 01:08:00;;;;;;;4.15;2.30;;;;;;;7.67;100.00;93259.66;2055785;28;20030;-80
2023/08/08 01:09:09;;;;;;;4.30;2.50;;;;;;;7.56;100.00;93256.34;2081676;28;20047;-80
2023/08/08 01:10:16;;;;;;;4.00;2.35;;;;;;;7.51;100.00;93257.53;2081880;28;20041;-79
2023/08/08 01:11:17;;;;;;;4.03;2.60;;;;;;;7.66;100.00;93244.09;2081303;28;20025;-79
2023/08/08 01:12:19;;;;;;;7.28;2.60;;;;;;;7.69;100.00;93257.38;2072349;28;20056;-80
2023/08/08 01:13:23;;;;;;;5.07;3.10;;;;;;;7.69;100.00;93253.97;2081353;28;20111;-80
2023/08/08 01:14:27;;;;;;;6.03;2.88;;;;;;;7.60;100.00;93256.31;2088730;28;20110;-80
2023/08/08 01:15:32;;;;;;;6.88;3.10;;;;;;;7.62;100.00;93249.44;2089581;28;20059;-79
2023/08/08 01:16:33;;;;;;;5.53;2.90;;;;;;;7.66;100.00;93246.75;2089018;28;20024;-80
2023/08/08 01:17:36;;;;;;;6.10;2.80;;;;;;;7.56;100.00;93248.38;2088251;28;20112;-79
2023/08/08 01:18:38;;;;;;;4.35;2.60;;;;;;;7.63;100.00;93245.63;2080646;28;20419;-80
2023/08/08 01:19:40;;;;;;;5.95;2.83;;;;;;;7.61;100.00;93249.84;2071899;28;20398;-80
2023/08/08 01:20:43;;;;;;;9.43;2.90;;;;;;;7.64;100.00;93241.06;2072214;28;20182;-80
2023/08/08 01:21:46;;;;;;;6.18;2.38;;;;;;;7.58;100.00;93244.16;2077814;28;20067;-80
2023/08/08 01:23:07;;;;;;;5.80;2.53;;;;;;;7.66;100.00;93244.84;2080939;28;20490;-79
2023/08/08 01:24:19;;;;;;;7.53;2.78;;;;;;;7.78;100.00;93244.38;2083439;28;20028;-79
2023/08/08 01:25:21;;;;;;;6.30;3.40;;;;;;;7.72;100.00;93242.53;2074277;28;20124;-80
2023/08/08 01:26:23;;;;;;;3.50;2.70;;;;;;;7.69;100.00;93246.00;2072845;28;20030;-80
2023/08/08 01:27:24;;;;;;;4.78;2.95;;;;;;;7.65;100.00;93250.59;2080587;28;20126;-79
2023/08/08 01:28:26;;;;;;;6.03;3.05;;;;;;;7.61;100.00;93253.25;2089066;28;20461;-80
2023/08/08 01:29:27;;;;;;;5.53;3.00;;;;;;;7.63;100.00;93242.22;2088709;28;20107;-79
2023/08/08 01:30:28;;;;;;;4.57;2.97;;;;;;;7.57;100.00;93237.34;2081168;28;20497;-80
2023/08/08 01:31:34;;;;;;;7.90;2.70;;;;;;;7.51;100.00;93238.16;2080989;28;20436;-79
2023/08/08 01:32:35;;;;;;;4.40;2.85;;;;;;;7.48;100.00;93239.69;2090794;28;20028;-79
2023/08/08 01:33:37;;;;;;;4.18;2.38;;;;;;;7.51;100.00;93236.25;2088931;28;20894;-80
2023/08/08 01:34:38;;;;;;;4.53;2.80;;;;;;;7.55;100.00;93239.63;2084841;28;20021;-80
2023/08/08 01:35:44;;;;;;;5.30;3.17;;;;;;;7.54;100.00;93232.03;2080861;28;20033;-80
2023/08/08 01:36:55;;;;;;;4.32;2.25;;;;;;;7.55;100.00;93226.34;2081272;28;20125;-79
2023/08/08 01:38:04;;;;;;;5.43;2.78;;;;;;;7.55;100.00;93236.97;2078963;28;20484;-79
2023/08/08 01:39:13;;;;;;;4.20;3.08;;;;;;;7.51;100.00;93235.50;2089319;28;20021;-80
2023/08/08 01:40:17;;;;;;;4.18;2.90;;;;;;;7.47;100.00;93238.19;2081749;28;20029;-79
2023/08/08 01:41:19;;;;;;;6.13;3.13;;;;;;;7.46;100.00;93233.25;2092496;28;20024;-80
2023/08/08 01:42:23;;;;;;;5.40;2.72;;;;;;;7.41;100.00;93233.66;2080938;28;20469;-79
2023/08/08 01:43:25;;;;;;;4.82;3.08;;;;;;;7.44;100.00;93240.88;2072635;28;20032;-80
2023/08/08 01:44:28;;;;;;;5.00;2.78;;;;;;;7.46;100.00;93228.69;2066300;28;20512;-80
2023/08/08 01:45:30;;;;;;;5.10;2.80;;;;;;;7.46;100.00;93239.34;2073069;28;20438;-79
2023/08/08 01:46:32;;;;;;;5.88;2.92;;;;;;;7.51;100.00;93238.16;2077621;28;20026;-79
2023/08/08 01:47:33;;;;;;;6.90;3.30;;;;;;;7.40;100.00;93235.56;2072766;28;20048;-79
2023/08/08 01:48:33;;;;;;;3.85;3.08;;;;;;;7.43;100.00;93236.69;2073162;28;20121;-80
2023/08/08 01:49:35;;;;;;;6.85;2.80;;;;;;;7.58;100.00;93238.09;2082768;28;20040;-80
2023/08/08 01:50:38;;;;;;;6.03;3.30;;;;;;;7.55;100.00;93231.66;2065082;28;20111;-79
2023/08/08 01:51:41;;;;;;;4.47;3.35;;;;;;;7.56;100.00;93237.72;2067043;28;20018;-79
2023/08/08 01:52:43;;;;;;;6.18;2.70;;;;;;;7.54;100.00;93238.09;2072335;28;20025;-80
2023/08/08 01:53:44;;;;;;;4.85;2.92;;;;;;;7.51;100.00;93232.84;2064622;28;20430;-79
2023/08/08 01:54:45;;;;;;;5.57;2.80;;;;;;;7.55;100.00;93234.31;2067225;28;20030;-79
2023/08/08 01:55:46;;;;;;;5.75;2.60;;;;;;;7.69;100.00;93238.00;2072675;28;20062;-80
2023/08/08 01:56:47;;;;;;;6.80;3.05;;;;;;;7.65;100.00;93230.06;2064301;28;20069;-80
2023/08/08 01:57:48;;;;;;;2.85;2.60;;;;;;;7.64;100.00;93238.41;2064255;28;20045;-80
2023/08/08 01:58:49;;;;;;;5.88;2.55;;;;;;;7.55;100.00;93236.19;2073032;28;20112;-80
2023/08/08 01:59:49;;;;;;;6.15;2.70;;;;;;;7.62;100.00;93235.41;2071866;28;20018;-79
2023/08/08 02:00:50;;;;;;;6.55;3.30;;;;;;;7.58;100.00;93238.84;2072791;28;20026;-80
2023/08/08 02:01:51;;;;;;;3.28;2.95;;;;;;;7.53;100.00;93233.19;2070301;28;20033;-80
2023/08/08 02:02:52;;;;;;;4.35;3.30;;;;;;;7.53;100.00;93233.94;2065736;28;20106;-79
2023/08/08 02:03:53;;;;;;;4.93;2.78;;;;;;;7.61;100.00;93231.97;2080737;28;20033;-80
2023/08/08 02:04:54;;;;;;;5.70;3.40;;;;;;;7.61;100.00;93231.97;2071842;28;20060;-80
2023/08/08 02:05:55;;;;;;;4.30;2.80;;;;;;;7.60;100.00;93235.81;2064341;28;20029;-80
2023/08/08 02:06:56;;;;;;;6.97;3.10;;;;;;;7.57;100.00;93229.34;2072027;28;20030;-80
2023/08/08 02:07:57;;;;;;;4.88;2.90;;;;;;;7.61;100.00;93236.56;2066159;28;20076;-79
2023/08/08 02:08:58;;;;;;;4.07;2.30;;;;;;;7.64;100.00;93243.72;2077705;28;20051;-80
2023/08/08 02:09:59;;;;;;;5.57;2.83;;;;;;;7.53;100.00;93233.19;2066448;28;20026;-79
2023/08/08 02:11:00;;;;;;;4.95;2.60;;;;;;;7.65;100.00;93239.94;2072410;28;20518;-80
2023/08/08 02:12:01;;;;;;;5.80;2.45;;;;;;;7.61;100.00;93236.56;2080306;28;20036;-79
2023/08/08 02:13:06;;;;;;;4.53;2.50;;;;;;;7.62;100.00;93232.75;2064923;28;20053;-79
2023/08/08 02:14:07;;;;;;;2.80;2.42;;;;;;;7.57;100.00;93234.66;2057074;28;20030;-80
2023/08/08 02:15:08;;;;;;;6.00;2.80;;;;;;;7.55;100.00;93236.19;2071975;28;20121;-79
2023/08/08 02:16:23;;;;;;;5.70;2.75;;;;;;;7.48;100.00;93242.34;2080564;28;20112;-79
2023/08/08 02:17:25;;;;;;;5.85;2.83;;;;;;;7.55;100.00;93239.63;2080665;28;20108;-79
2023/08/08 02:18:26;;;;;;;6.10;2.60;;;;;;;7.60;100.00;93237.72;2084008;28;20190;-79
2023/08/08 02:19:27;;;;;;;5.80;3.05;;;;;;;7.68;100.00;93234.59;2080608;28;20021;-80
2023/08/08 02:22:30;;;;;;;;;;;;;;;7.42;100.00;93227.97;2147059;27;20113;-79
2023/08/08 02:23:39;;;;;;;4.25;2.53;;;;;;;7.57;100.00;93237.34;2135034;27;20363;-78
2023/08/08 02:24:43;;;;;;;4.57;2.60;;;;;;;7.44;100.00;93228.31;2120709;28;20024;-81
2023/08/08 02:25:47;;;;;;;3.78;2.65;;;;;;;7.40;100.00;93234.81;2116776;28;20027;-81
2023/08/08 02:26:53;;;;;;;4.22;2.80;;;;;;;7.43;100.00;93232.13;2108023;28;20377;-81
2023/08/08 02:27:58;;;;;;;5.70;2.30;;;;;;;7.43;100.00;93231.38;2122218;27;20027;-81
2023/08/08 02:28:59;;;;;;;8.52;2.58;;;;;;;7.35;100.00;93227.25;2114177;28;20024;-81
2023/08/08 02:30:00;;;;;;;6.18;2.78;;;;;;;7.37;100.00;93224.94;2103869;28;20064;-81
2023/08/08 02:31:00;;;;;;;5.10;2.70;;;;;;;7.45;100.00;93232.47;2095917;28;20474;-81
2023/08/08 02:32:01;;;;;;;3.45;2.58;;;;;;;7.48;100.00;93236.28;2112051;28;20024;-81
2023/08/08 02:33:02;;;;;;;4.57;2.70;;;;;;;7.45;100.00;93229.81;2121356;28;20019;-81
2023/08/08 02:34:04;;;;;;;3.30;2.67;;;;;;;7.56;100.00;93238.47;2112746;28;20028;-82
2023/08/08 02:35:05;;;;;;;4.03;2.30;;;;;;;7.57;100.00;93234.66;2112299;28;20020;-82
2023/08/08 02:36:06;;;;;;;5.20;3.10;;;;;;;7.51;100.00;93240.81;2113154;28;20031;-81
2023/08/08 02:37:07;;;;;;;5.47;2.42;;;;;;;7.50;100.00;93232.06;2107286;28;20070;-81
2023/08/08 02:38:08;;;;;;;2.65;2.28;;;;;;;7.52;100.00;93237.00;2105183;28;20031;-81
2023/08/08 02:39:09;;;;;;;3.88;2.40;;;;;;;7.55;100.00;93236.97;2112638;28;20066;-82
2023/08/08 02:40:10;;;;;;;7.00;2.53;;;;;;;7.55;100.00;93236.97;2112100;28;20464;-80
2023/08/08 02:41:11;;;;;;;3.50;2.50;;;;;;;7.58;100.00;93230.84;2118071;28;20452;-81
2023/08/08 02:42:12;;;;;;;8.82;3.15;;;;;;;7.58;100.00;93238.09;2110802;28;20089;-81
2023/08/08 02:43:13;;;;;;;3.70;2.33;;;;;;;7.62;100.00;93238.06;2103339;28;20073;-81
2023/08/08 02:44:14;;;;;;;6.70;2.60;;;;;;;7.58;100.00;93233.50;2112203;28;20058;-81
2023/08/08 02:45:15;;;;;;;6.38;2.80;;;;;;;7.63;100.00;93229.69;2100277;28;20017;-81
2023/08/08 02:46:16;;;;;;;6.00;2.60;;;;;;;7.67;100.00;93235.72;2104272;28;20034;-80
2023/08/08 02:47:16;;;;;;;2.92;2.30;;;;;;;7.72;100.00;93231.88;2120822;28;20106;-81
2023/08/08 02:48:19;;;;;;;3.28;2.28;;;;;;;7.75;100.00;93223.13;2103815;28;20066;-81
2023/08/08 02:49:20;;;;;;;11.57;3.85;;;;;;;7.68;100.00;93226.63;2102842;28;20024;-81
2023/08/08 02:50:21;;;;;;;8.35;2.55;;;;;;;7.68;100.00;93225.84;2108543;28;20028;-81
2023/08/08 02:51:22;;;;;;;6.38;2.60;;;;;;;7.63;100.00;93220.94;2104145;28;20024;-80
2023/08/08 02:52:31;;;;;;;3.30;2.30;;;;;;;7.70;100.00;93223.53;2105968;28;20072;-81
2023/08/08 02:53:32;;;;;;;7.72;2.75;;;;;;;7.65;100.00;93223.97;2111868;28;20024;-81
2023/08/08 02:54:33;;;;;;;4.95;2.47;;;;;;;7.71;100.00;93217.81;2112410;28;20123;-80
2023/08/08 02:55:36;;;;;;;5.40;2.40;;;;;;;7.65;100.00;93218.66;2112385;28;20371;-81
2023/08/08 02:56:37;;;;;;;5.00;2.58;;;;;;;7.62;100.00;93214.13;2112512;28;20031;-81
2023/08/08 02:57:39;;;;;;;4.43;2.75;;;;;;;7.46;100.00;93215.41;2104131;28;20389;-80
2023/08/08 02:58:40;;;;;;;6.72;2.45;;;;;;;7.40;100.00;93214.28;2111815;28;20030;-81
2023/08/08 02:59:41;;;;;;;5.50;2.70;;;;;;;7.45;100.00;93216.53;2108212;28;20020;-81
2023/08/08 03:00:42;;;;;;;5.47;2.95;;;;;;;7.39;100.00;93214.69;2111105;28;20403;-81
2023/08/08 03:01:43;;;;;;;6.13;2.88;;;;;;;7.33;100.00;93219.66;2112075;28;20496;-81
2023/08/08 03:02:44;;;;;;;4.95;2.58;;;;;;;7.33;100.00;93217.00;2104118;28;20028;-80
2023/08/08 03:03:44;;;;;;;4.82;2.95;;;;;;;7.32;100.00;93210.19;2087932;28;20036;-81
2023/08/08 03:04:45;;;;;;;5.97;2.78;;;;;;;7.27;100.00;93210.59;2111771;28;20024;-81
2023/08/08 03:05:46;;;;;;;5.07;2.70;;;;;;;7.27;100.00;93207.94;2119384;28;20027;-81
2023/08/08 03:06:47;;;;;;;10.68;3.13;;;;;;;7.32;100.00;93202.97;2111977;28;20051;-80
2023/08/08 03:07:48;;;;;;;7.15;2.90;;;;;;;7.30;100.00;93201.84;2104035;28;20032;-81
2023/08/08 03:08:49;;;;;;;7.20;3.08;;;;;;;7.25;100.00;93203.03;2100473;28;20504;-82
2023/08/08 03:09:50;;;;;;;4.05;2.78;;;;;;;7.19;100.00;93204.56;2112165;28;20100;-81
2023/08/08 03:10:51;;;;;;;4.38;2.55;;;;;;;7.26;100.00;93217.06;2103475;28;20074;-80
2023/08/08 03:11:52;;;;;;;4.80;2.80;;;;;;;7.23;100.00;93202.66;2115346;28;20068;-81
2023/08/08 03:13:00;;;;;;;4.97;2.80;;;;;;;7.23;100.00;93207.22;2112503;28;20110;-81
2023/08/08 03:14:01;;;;;;;7.00;3.15;;;;;;;7.16;100.00;93208.03;2108556;28;20063;-81
2023/08/08 03:15:02;;;;;;;3.78;2.67;;;;;;;7.09;100.00;93207.31;2104443;28;20409;-80
2023/08/08 03:16:04;;;;;;;4.10;2.70;;;;;;;7.13;100.00;93208.06;2104031;28;20035;-81
2023/08/08 03:17:05;;;;;;;4.13;2.65;;;;;;;7.07;100.00;93215.69;2103690;28;20020;-80
2023/08/08 03:18:06;;;;;;;6.95;2.78;;;;;;;7.00;100.00;93215.75;2104173;28;20044;-80
2023/08/08 03:19:07;;;;;;;3.40;2.60;;;;;;;6.96;100.00;93217.66;2103589;28;20020;-80
2023/08/08 03:20:10;;;;;;;7.43;2.42;;;;;;;6.88;100.00;93214.28;2105310;28;20024;-80
2023/08/08 03:21:11;;;;;;;5.00;2.40;;;;;;;6.75;100.00;93215.88;2112668;28;20747;-81
2023/08/08 03:22:12;;;;;;;4.93;2.45;;;;;;;6.83;100.00;93220.00;2111690;28;20077;-80
2023/08/08 03:23:13;;;;;;;4.63;2.38;;;;;;;6.88;100.00;93219.59;2103489;28;20111;-80
2023/08/08 03:24:14;;;;;;;8.90;2.45;;;;;;;6.90;100.00;93219.22;2120239;28;20034;-80
2023/08/08 03:25:15;;;;;;;4.55;2.20;;;;;;;6.77;100.00;93214.38;2120084;28;20023;-81
2023/08/08 03:26:16;;;;;;;4.63;2.80;;;;;;;6.83;100.00;93220.00;2103865;28;20094;-80
2023/08/08 03:27:18;;;;;;;7.07;2.60;;;;;;;6.77;100.00;93211.72;2108232;28;20019;-81
2023/08/08 03:28:19;;;;;;;3.42;2.50;;;;;;;6.70;100.00;93210.97;2112226;28;20024;-80
2023/08/08 03:29:20;;;;;;;4.72;2.40;;;;;;;6.70;100.00;93217.03;2103396;28;20086;-81
2023/08/08 03:30:21;;;;;;;5.25;2.53;;;;;;;6.66;100.00;93216.31;2103649;28;20129;-81
2023/08/08 03:31:23;;;;;;;3.45;2.45;;;;;;;6.68;100.00;93218.59;2103725;28;20496;-80
2023/08/08 03:32:24;;;;;;;3.40;2.40;;;;;;;6.60;100.00;93217.13;2103575;28;20409;-81
2023/08/08 03:33:25;;;;;;;11.38;2.47;;;;;;;6.60;100.00;93227.75;2106552;28;20035;-81
2023/08/08 03:34:26;;;;;;;13.80;3.47;;;;;;;6.52;100.00;93222.44;2097662;28;20075;-81
2023/08/08 03:35:27;;;;;;;6.07;2.38;;;;;;;6.59;100.00;93226.22;2097904;28;20496;-80
2023/08/08 03:36:28;;;;;;;3.38;2.72;;;;;;;6.52;100.00;93227.75;2090068;28;20033;-80
2023/08/08 03:37:31;;;;;;;7.95;2.80;;;;;;;6.53;100.00;93223.19;2098025;28;20096;-80
2023/08/08 03:38:32;;;;;;;9.27;2.95;;;;;;;6.52;100.00;93227.75;2114772;28;20031;-81
2023/08/08 03:39:33;;;;;;;5.32;2.90;;;;;;;6.47;100.00;93225.50;2114968;28;20051;-80
2023/08/08 03:40:34;;;;;;;4.68;2.70;;;;;;;6.51;100.00;93225.50;2114231;28;20019;-80
2023/08/08 03:41:36;;;;;;;4.90;2.78;;;;;;;6.60;100.00;93227.75;2106320;28;20052;-80
2023/08/08 03:42:37;;;;;;;6.07;2.67;;;;;;;6.52;100.00;93219.78;2096987;28;20029;-81
2023/08/08 03:43:39;;;;;;;8.60;2.33;;;;;;;6.47;100.00;93230.81;2097734;28;20390;-80
2023/08/08 03:44:40;;;;;;;6.32;2.55;;;;;;;6.52;100.00;93230.41;2106809;28;20377;-81
2023/08/08 03:45:41;;;;;;;3.22;2.50;;;;;;;6.46;100.00;93224.00;2097691;28;20024;-80
2023/08/08 03:46:42;;;;;;;3.90;2.80;;;;;;;6.43;100.00;93230.09;2090208;28;20033;-81
2023/08/08 03:47:43;;;;;;;5.25;2.45;;;;;;;6.39;100.00;93216.06;2097549;28;20067;-81
2023/08/08 03:48:44;;;;;;;2.90;2.60;;;;;;;6.42;100.00;93227.81;2091669;28;20025;-80
2023/08/08 03:49:45;;;;;;;2.85;2.38;;;;;;;6.49;100.00;93222.47;2098161;28;20465;-80
2023/08/08 03:50:46;;;;;;;3.42;2.42;;;;;;;6.46;100.00;93224.00;2105085;28;20031;-81
2023/08/08 03:51:48;;;;;;;4.07;2.00;;;;;;;6.50;100.00;93227.41;2103147;28;20020;-81
2023/08/08 03:52:49;;;;;;;2.72;2.40;;;;;;;6.51;100.00;93228.16;2097942;28;20559;-81
2023/08/08 03:53:50;;;;;;;6.93;2.65;;;;;;;6.46;100.00;93226.66;2097701;28;20035;-81
2023/08/08 03:54:52;;;;;;;4.93;2.20;;;;;;;6.42;100.00;93233.88;2090096;28;20029;-81
2023/08/08 03:55:53;;;;;;;6.10;2.20;;;;;;;6.27;100.00;93224.44;2102694;28;20027;-81
2023/08/08 03:56:53;;;;;;;4.97;2.42;;;;;;;6.24;100.00;93227.91;2105957;28;20019;-81
2023/08/08 03:57:54;;;;;;;2.55;2.00;;;;;;;6.23;100.00;93226.34;2106650;28;20052;-80
2023/08/08 03:58:56;;;;;;;3.92;2.17;;;;;;;6.29;100.00;93224.84;2097730;28;20368;-80
2023/08/08 03:59:57;;;;;;;5.38;2.28;;;;;;;6.24;100.00;93223.34;2098142;28;20107;-80
2023/08/08 04:00:58;;;;;;;4.38;2.38;;;;;;;6.29;100.00;93222.94;2101753;28;20056;-80
2023/08/08 04:01:59;;;;;;;5.53;1.98;;;;;;;6.33;100.00;93225.59;2112694;28;20030;-80
2023/08/08 04:03:00;;;;;;;3.58;2.00;;;;;;;6.34;100.00;93218.38;2115623;28;20032;-81
2023/08/08 04:04:01;;;;;;;2.95;2.03;;;;;;;6.28;100.00;93225.97;2106077;28;20100;-80
2023/08/08 04:05:02;;;;;;;4.97;1.73;;;;;;;6.25;100.00;93224.09;2106601;28;20164;-81
2023/08/08 04:06:03;;;;;;;3.47;2.13;;;;;;;6.20;100.00;93221.84;2106050;28;20074;-80
2023/08/08 04:07:04;;;;;;;5.40;2.20;;;;;;;6.21;100.00;93228.66;2097762;28;20051;-80
2023/08/08 04:08:05;;;;;;;4.15;2.25;;;;;;;6.16;100.00;93231.72;2089891;28;20068;-80
2023/08/08 04:09:06;;;;;;;2.10;1.90;;;;;;;6.23;100.00;93224.47;2097679;28;20716;-80
2023/08/08 04:10:07;;;;;;;2.65;2.30;;;;;;;6.22;100.00;93225.59;2105621;28;20028;-80
2023/08/08 04:11:08;;;;;;;4.18;2.33;;;;;;;6.17;100.00;93222.59;2097947;28;20413;-80
2023/08/08 04:12:09;;;;;;;2.65;1.80;;;;;;;6.25;100.00;93226.75;2097261;28;20036;-80
2023/08/08 04:13:10;;;;;;;8.40;2.63;;;;;;;6.24;100.00;93228.66;2089954;28;20051;-81
2023/08/08 04:14:11;;;;;;;5.47;2.25;;;;;;;6.18;100.00;93234.72;2097797;28;20381;-80
2023/08/08 04:15:12;;;;;;;2.63;2.03;;;;;;;6.13;100.00;93235.13;2097849;28;20024;-80
2023/08/08 04:16:14;;;;;;;3.83;2.20;;;;;;;6.15;100.00;93236.25;2106475;28;20055;-81
2023/08/08 04:17:14;;;;;;;3.65;2.40;;;;;;;6.11;100.00;93242.72;2089474;28;20094;-80
2023/08/08 04:18:18;;;;;;;2.75;1.98;;;;;;;6.13;100.00;93235.88;2098047;28;20020;-80
2023/08/08 04:19:19;;;;;;;3.05;1.90;;;;;;;6.15;100.00;93232.84;2097810;28;20028;-81
2023/08/08 04:20:20;;;;;;;3.00;2.03;;;;;;;6.08;100.00;93230.97;2097288;28;20059;-80
2023/08/08 04:21:21;;;;;;;3.38;2.40;;;;;;;6.06;100.00;93233.25;2089444;28;20021;-81
2023/08/08 04:22:23;;;;;;;4.15;1.90;;;;;;;6.13;100.00;93238.53;2095423;28;20044;-79
2023/08/08 04:23:25;;;;;;;4.13;2.05;;;;;;;6.14;100.00;93236.63;2089782;28;20024;-80
2023/08/08 04:24:26;;;;;;;4.35;2.00;;;;;;;6.16;100.00;93243.06;2090153;28;20025;-80
2023/08/08 04:25:28;;;;;;;2.30;1.90;;;;;;;6.13;100.00;93240.44;2081544;28;20030;-80
2023/08/08 04:26:30;;;;;;;3.90;2.13;;;;;;;6.05;100.00;93242.34;2089756;28;20028;-81
2023/08/08 04:27:31;;;;;;;2.22;1.92;;;;;;;6.04;100.00;93241.59;2097593;28;20457;-80
2023/08/08 04:28:32;;;;;;;2.67;1.70;;;;;;;6.08;100.00;93233.63;2089628;28;20098;-80
2023/08/08 04:29:33;;;;;;;4.65;2.00;;;;;;;6.14;100.00;93244.59;2097140;28;20059;-80
2023/08/08 04:30:35;;;;;;;3.78;2.30;;;;;;;6.16;100.00;93239.66;2105741;28;20042;-80
2023/08/08 04:31:36;;;;;;;2.25;1.70;;;;;;;6.09;100.00;93237.03;2089557;28;20017;-80
2023/08/08 04:32:37;;;;;;;3.50;1.98;;;;;;;6.16;100.00;93237.78;2097529;28;20043;-81
2023/08/08 04:33:38;;;;;;;2.85;1.90;;;;;;;6.23;100.00;93239.63;2088608;28;20476;-81
2023/08/08 04:34:39;;;;;;;4.53;2.22;;;;;;;6.37;100.00;93241.50;2097786;28;20024;-81
2023/08/08 04:35:40;;;;;;;4.50;1.90;;;;;;;6.37;100.00;93242.25;2089105;28;20397;-80
2023/08/08 04:36:41;;;;;;;5.78;1.92;;;;;;;6.42;100.00;93247.16;2098077;28;20538;-80
2023/08/08 04:37:45;;;;;;;4.72;2.22;;;;;;;6.40;100.00;93249.44;2089738;28;20371;-80
2023/08/08 04:38:48;;;;;;;4.90;2.30;;;;;;;6.31;100.00;93252.50;2089667;28;20079;-80
2023/08/08 04:39:49;;;;;;;3.97;2.20;;;;;;;6.37;100.00;93252.88;2081966;28;20029;-80
2023/08/08 04:40:50;;;;;;;2.50;2.28;;;;;;;6.42;100.00;93254.38;2080819;28;20064;-80
2023/08/08 04:41:52;;;;;;;3.22;2.08;;;;;;;6.33;100.00;93254.03;2097071;28;20040;-80
2023/08/08 04:42:53;;;;;;;10.52;2.33;;;;;;;6.37;100.00;93247.56;2097907;28;20020;-79
2023/08/08 04:43:54;;;;;;;2.33;1.85;;;;;;;6.37;100.00;93252.13;2102066;28;20105;-80
2023/08/08 04:44:55;;;;;;;2.17;1.98;;;;;;;6.35;100.00;93247.19;2097972;28;20032;-81
2023/08/08 04:45:56;;;;;;;4.93;2.00;;;;;;;6.43;100.00;93250.56;2103648;28;20024;-79
2023/08/08 04:47:01;;;;;;;5.25;2.25;;;;;;;6.44;100.00;93250.16;2095955;28;20069;-80
2023/08/08 04:48:03;;;;;;;2.40;1.90;;;;;;;6.55;100.00;93242.19;2083986;28;20091;-80
2023/08/08 04:49:06;;;;;;;3.78;2.13;;;;;;;6.50;100.00;93245.25;2093920;28;20400;-80
2023/08/08 04:50:07;;;;;;;2.75;2.05;;;;;;;6.55;100.00;93240.28;2088919;28;20021;-80
2023/08/08 04:51:08;;;;;;;4.05;1.85;;;;;;;6.46;100.00;93245.25;2080864;28;20029;-80
2023/08/08 04:52:09;;;;;;;2.22;2.03;;;;;;;6.36;100.00;93246.03;2099145;28;20028;-81
2023/08/08 04:53:10;;;;;;;5.30;2.20;;;;;;;6.37;100.00;93246.81;2097614;28;20078;-80
2023/08/08 04:54:11;;;;;;;4.43;2.05;;;;;;;6.32;100.00;93245.28;2080790;28;20712;-79